This is the latest recevied weather packets stored in our database for station/object W5ALL-WX. If no packets are shown the sender has not sent any weather packets the latest 10 day(s).
| Time | Temp. | Humidity | Pressure | Rain* | Wind** | Luminosity | Snow |
|---|---|---|---|---|---|---|---|
| 1777885889 | 13.89° C | 68% | 1012.8 hPa | 0 mm | - | - | - |
| 1777885589 | 13.89° C | 68% | 1012.7 hPa | 0 mm | - | - | - |
| 1777885289 | 13.89° C | 66% | 1012.6 hPa | 0 mm | - | - | - |
| 1777884989 | 14.44° C | 63% | 1012.7 hPa | 0 mm | - | - | - |
| 1777884689 | 15° C | 62% | 1012.6 hPa | 0 mm | - | - | - |
| 1777884389 | 15° C | 60% | 1012.7 hPa | 0 mm | - | - | - |
| 1777884089 | 15° C | 59% | 1012.8 hPa | 0 mm | - | - | - |
| 1777883789 | 15.56° C | 57% | 1012.9 hPa | 0 mm | - | - | - |
| 1777883489 | 15.56° C | 56% | 1012.9 hPa | 0 mm | - | - | - |
| 1777883189 | 16.11° C | 56% | 1013.1 hPa | 0 mm | - | - | - |
| 1777882889 | 16.67° C | 53% | 1013.1 hPa | 0 mm | - | - | - |
| 1777882589 | 16.67° C | 53% | 1013.1 hPa | 0 mm | - | - | - |
| 1777882289 | 17.22° C | 51% | 1013.2 hPa | 0 mm | - | - | - |
| 1777881989 | 17.22° C | 50% | 1013.3 hPa | 0 mm | - | - | - |
| 1777881689 | 17.78° C | 48% | 1013.4 hPa | 0 mm | - | - | - |
| 1777881389 | 18.33° C | 47% | 1013.4 hPa | 0 mm | - | - | - |
| 1777881089 | 19.44° C | 43% | 1013.5 hPa | 0 mm | - | - | - |
| 1777880789 | 20° C | 40% | 1013.5 hPa | 0 mm | - | - | - |
| 1777880489 | 20.56° C | 39% | 1013.5 hPa | 0 mm | - | - | - |
| 1777880189 | 20.56° C | 38% | 1013.6 hPa | 0 mm | - | - | - |
| 1777879889 | 20.56° C | 38% | 1013.8 hPa | 0 mm | - | - | - |
| 1777879589 | 20.56° C | 38% | 1013.8 hPa | 0 mm | - | - | - |
| 1777879289 | 20.56° C | 39% | 1013.9 hPa | 0 mm | - | - | - |
| 1777878989 | 20.56° C | 39% | 1014 hPa | 0 mm | - | - | - |
| 1777878689 | 20° C | 39% | 1013.9 hPa | 0 mm | - | - | - |
* Rain latest hour (hover to see other rain measurements)
** Current wind speed in m/s (hover to see current wind gust speed)